Time;durP1;ratioP1;P1;durP2;ratioP2;P2;SDS_P1;SDS_P2;PMS_P1;PMS_P2;Temp;Humidity;BMP_temperature;BMP_pressure;BME280_temperature;BME280_humidity;BME280_pressure;Samples;Min_cycle;Max_cycle;Signal;HPM_P1;HPM_P2
2021/09/20 00:01:38;;;;;;;24.53;23.13;;;;;;;;;;5056659;28;20455;-91
2021/09/20 00:04:06;;;;;;;23.70;22.27;;;;;;;;;;5057567;28;20429;-91
2021/09/20 00:06:33;;;;;;;24.30;22.80;;;;;;;;;;5056910;28;20420;-91
2021/09/20 00:09:00;;;;;;;24.27;22.73;;;;;;;;;;5056582;28;20455;-91
2021/09/20 00:11:28;;;;;;;24.67;22.97;;;;;;;;;;5057072;28;20432;-91
2021/09/20 00:13:57;;;;;;;24.00;22.50;;;;;;;;;;5056365;28;20820;-90
2021/09/20 00:16:24;;;;;;;24.07;22.57;;;;;;;;;;5056631;28;20471;-91
2021/09/20 00:18:52;;;;;;;23.60;22.10;;;;;;;;;;5038647;28;20450;-91
2021/09/20 00:21:19;;;;;;;24.20;22.73;;;;;;;;;;5056848;28;20887;-91
2021/09/20 00:23:46;;;;;;;24.47;22.87;;;;;;;;;;5056848;28;20404;-91
2021/09/20 00:26:14;;;;;;;24.20;22.70;;;;;;;;;;5056743;28;20425;-92
2021/09/20 00:28:41;;;;;;;24.60;22.90;;;;;;;;;;5057159;28;20757;-91
2021/09/20 00:31:10;;;;;;;24.23;22.80;;;;;;;;;;5056446;28;20442;-92
2021/09/20 00:33:37;;;;;;;22.90;21.50;;;;;;;;;;5056607;28;20903;-91
2021/09/20 00:36:05;;;;;;;23.60;22.20;;;;;;;;;;5056029;28;20428;-91
2021/09/20 00:38:32;;;;;;;23.87;22.43;;;;;;;;;;5039155;28;20482;-92
2021/09/20 00:41:00;;;;;;;24.30;22.63;;;;;;;;;;5056286;28;20454;-91
2021/09/20 00:43:27;;;;;;;23.13;21.63;;;;;;;;;;5056602;28;20421;-91
2021/09/20 00:45:55;;;;;;;23.97;22.47;;;;;;;;;;5055870;28;20466;-91
2021/09/20 00:48:23;;;;;;;23.30;21.77;;;;;;;;;;5056113;28;20413;-91
2021/09/20 00:50:51;;;;;;;22.73;21.33;;;;;;;;;;5056168;28;20447;-91
2021/09/20 00:53:18;;;;;;;23.90;22.40;;;;;;;;;;5055788;28;20446;-91
2021/09/20 00:55:45;;;;;;;23.27;21.67;;;;;;;;;;5055230;28;20494;-91
2021/09/20 00:58:13;;;;;;;22.80;21.40;;;;;;;;;;5055387;28;20954;-91
2021/09/20 01:00:41;;;;;;;23.20;21.60;;;;;;;;;;5055605;28;20443;-92
2021/09/20 01:03:08;;;;;;;22.97;21.57;;;;;;;;;;5055695;28;20411;-91
2021/09/20 01:05:38;;;;;;;24.27;22.50;;;;;;;;;;5038412;28;20928;-91
2021/09/20 01:08:06;;;;;;;24.67;22.97;;;;;;;;;;5055590;28;20417;-91
2021/09/20 01:10:33;;;;;;;23.30;21.87;;;;;;;;;;5055800;28;20806;-91
2021/09/20 01:13:00;;;;;;;23.77;22.07;;;;;;;;;;5055714;28;20439;-91
2021/09/20 01:15:28;;;;;;;24.30;22.70;;;;;;;;;;5055674;28;20505;-91
2021/09/20 01:17:55;;;;;;;24.03;22.47;;;;;;;;;;5038262;28;20450;-92
2021/09/20 01:20:23;;;;;;;24.50;22.80;;;;;;;;;;5055392;28;20497;-91
2021/09/20 01:22:52;;;;;;;22.20;20.90;;;;;;;;;;5055539;28;20490;-90
2021/09/20 01:25:21;;;;;;;22.83;21.50;;;;;;;;;;5055707;28;20447;-91
2021/09/20 01:27:49;;;;;;;23.70;22.07;;;;;;;;;;5055263;28;20431;-91
2021/09/20 01:30:16;;;;;;;22.97;21.57;;;;;;;;;;5053982;28;20409;-91
2021/09/20 01:32:45;;;;;;;22.93;21.53;;;;;;;;;;5055014;28;20940;-91
2021/09/20 01:35:12;;;;;;;23.43;21.93;;;;;;;;;;5055395;28;20517;-92
2021/09/20 01:37:40;;;;;;;23.47;21.60;;;;;;;;;;5037924;28;20772;-92
2021/09/20 01:40:08;;;;;;;24.27;22.53;;;;;;;;;;5054783;28;20462;-91
2021/09/20 01:42:37;;;;;;;23.43;22.00;;;;;;;;;;5037705;28;20450;-91
2021/09/20 01:45:04;;;;;;;23.87;22.40;;;;;;;;;;5055202;28;20416;-91
2021/09/20 01:47:32;;;;;;;25.73;23.80;;;;;;;;;;5055198;28;20439;-91
2021/09/20 01:49:59;;;;;;;24.30;22.50;;;;;;;;;;5054688;28;20420;-92
2021/09/20 01:52:26;;;;;;;24.57;22.90;;;;;;;;;;5054842;28;20420;-91
2021/09/20 01:54:54;;;;;;;23.23;21.73;;;;;;;;;;5054543;28;20464;-91
2021/09/20 01:57:23;;;;;;;24.10;22.40;;;;;;;;;;5054266;28;20980;-91
2021/09/20 01:59:52;;;;;;;24.23;22.43;;;;;;;;;;5037095;28;20809;-91
2021/09/20 02:02:19;;;;;;;24.03;22.40;;;;;;;;;;5054580;28;20417;-91
2021/09/20 02:04:47;;;;;;;24.33;22.60;;;;;;;;;;5054745;28;20406;-91
2021/09/20 02:07:14;;;;;;;23.70;22.30;;;;;;;;;;5054842;28;20908;-90
2021/09/20 02:09:42;;;;;;;23.87;22.17;;;;;;;;;;5054784;28;20890;-92
2021/09/20 02:12:09;;;;;;;23.50;21.80;;;;;;;;;;5036969;28;20437;-92
2021/09/20 02:14:37;;;;;;;24.50;22.80;;;;;;;;;;5054021;28;20974;-91
2021/09/20 02:17:06;;;;;;;23.60;22.10;;;;;;;;;;5054552;28;20481;-91
2021/09/20 02:19:33;;;;;;;24.50;22.33;;;;;;;;;;5054602;28;20409;-91
2021/09/20 02:22:00;;;;;;;23.70;22.30;;;;;;;;;;5054068;28;20429;-91
2021/09/20 02:24:28;;;;;;;23.30;21.80;;;;;;;;;;5054455;28;20485;-92
2021/09/20 02:26:55;;;;;;;23.63;22.23;;;;;;;;;;5054378;28;20827;-91
2021/09/20 02:29:22;;;;;;;24.03;22.43;;;;;;;;;;5054579;28;20409;-91
2021/09/20 02:31:50;;;;;;;24.70;23.00;;;;;;;;;;5054094;28;20433;-91
2021/09/20 02:34:19;;;;;;;24.03;22.53;;;;;;;;;;5054021;28;20409;-92
2021/09/20 02:36:46;;;;;;;23.30;21.80;;;;;;;;;;5054315;28;20447;-91
2021/09/20 02:39:14;;;;;;;23.40;21.90;;;;;;;;;;5036935;28;20420;-92
2021/09/20 02:41:41;;;;;;;23.37;21.73;;;;;;;;;;5054310;28;20774;-91
2021/09/20 02:44:11;;;;;;;23.37;21.90;;;;;;;;;;5055424;28;20431;-91
2021/09/20 02:46:39;;;;;;;23.10;21.50;;;;;;;;;;5054159;28;20752;-90
2021/09/20 02:49:06;;;;;;;23.03;21.53;;;;;;;;;;5054837;28;20800;-92
2021/09/20 02:51:35;;;;;;;23.50;22.00;;;;;;;;;;5053882;28;20425;-91
2021/09/20 02:54:02;;;;;;;23.20;21.60;;;;;;;;;;5054254;28;20896;-92
2021/09/20 02:56:30;;;;;;;22.27;21.00;;;;;;;;;;5054034;28;20453;-91
2021/09/20 02:58:57;;;;;;;23.50;22.10;;;;;;;;;;5036607;28;20492;-91
2021/09/20 03:01:25;;;;;;;24.30;22.80;;;;;;;;;;5036733;28;20991;-91
2021/09/20 03:03:52;;;;;;;23.13;21.73;;;;;;;;;;5054225;28;20935;-91
2021/09/20 03:06:19;;;;;;;22.83;21.53;;;;;;;;;;5054318;28;20842;-92
2021/09/20 03:08:48;;;;;;;23.00;21.60;;;;;;;;;;5054199;28;20413;-91
2021/09/20 03:11:16;;;;;;;23.67;22.17;;;;;;;;;;5054008;28;20424;-91
2021/09/20 03:13:43;;;;;;;25.03;23.23;;;;;;;;;;5053745;28;20417;-92
2021/09/20 03:16:10;;;;;;;22.80;21.33;;;;;;;;;;5053799;28;20855;-91
2021/09/20 03:18:38;;;;;;;23.33;21.83;;;;;;;;;;5053739;28;20458;-91
2021/09/20 03:21:05;;;;;;;22.33;21.03;;;;;;;;;;5053730;28;20793;-91
2021/09/20 03:23:33;;;;;;;23.10;21.70;;;;;;;;;;5054026;28;20781;-92
2021/09/20 03:26:02;;;;;;;23.27;21.87;;;;;;;;;;5053865;28;20790;-91
2021/09/20 03:28:29;;;;;;;23.10;21.60;;;;;;;;;;5053898;28;20430;-91
2021/09/20 03:30:56;;;;;;;23.60;22.10;;;;;;;;;;5054064;28;20431;-91
2021/09/20 03:33:24;;;;;;;23.90;22.40;;;;;;;;;;5036338;28;20451;-91
2021/09/20 03:35:51;;;;;;;23.03;21.60;;;;;;;;;;5053630;28;20457;-91
2021/09/20 03:38:19;;;;;;;23.93;22.43;;;;;;;;;;5035938;28;20413;-91
2021/09/20 03:40:46;;;;;;;23.40;21.90;;;;;;;;;;5053785;28;20420;-91
2021/09/20 03:43:15;;;;;;;23.33;21.93;;;;;;;;;;5053895;28;20895;-91
2021/09/20 03:45:42;;;;;;;24.13;22.47;;;;;;;;;;5053672;28;20779;-91
2021/09/20 03:48:10;;;;;;;22.60;21.20;;;;;;;;;;5053898;28;20417;-91
2021/09/20 03:50:38;;;;;;;23.20;21.73;;;;;;;;;;5053599;28;20417;-91
2021/09/20 03:53:06;;;;;;;23.50;22.00;;;;;;;;;;5055281;28;20417;-91
2021/09/20 03:55:33;;;;;;;23.90;22.20;;;;;;;;;;5056939;28;20487;-91
2021/09/20 03:58:00;;;;;;;23.53;22.03;;;;;;;;;;5056937;28;20489;-92
2021/09/20 04:00:29;;;;;;;24.10;22.30;;;;;;;;;;5057153;28;20406;-91
2021/09/20 04:02:56;;;;;;;23.33;21.73;;;;;;;;;;5057782;28;20850;-91
2021/09/20 04:05:24;;;;;;;24.30;22.63;;;;;;;;;;5057582;28;20428;-92
2021/09/20 04:07:51;;;;;;;24.37;22.70;;;;;;;;;;5056862;28;20918;-91
2021/09/20 04:10:18;;;;;;;25.27;23.43;;;;;;;;;;5056949;28;20446;-92
2021/09/20 04:12:46;;;;;;;22.93;21.50;;;;;;;;;;5039365;28;20414;-91
2021/09/20 04:15:13;;;;;;;23.90;22.00;;;;;;;;;;5057288;28;20979;-91
2021/09/20 04:17:42;;;;;;;24.50;22.83;;;;;;;;;;5056419;28;20406;-91
2021/09/20 04:20:10;;;;;;;24.40;22.90;;;;;;;;;;5056861;28;20401;-92
2021/09/20 04:22:37;;;;;;;24.50;22.80;;;;;;;;;;5056713;28;20405;-91
2021/09/20 04:25:05;;;;;;;24.17;22.60;;;;;;;;;;5056588;28;20428;-91
2021/09/20 04:27:33;;;;;;;23.30;21.83;;;;;;;;;;5056518;28;20440;-91
2021/09/20 04:30:00;;;;;;;23.70;22.10;;;;;;;;;;5056256;28;20458;-91
2021/09/20 04:32:27;;;;;;;24.23;22.60;;;;;;;;;;5056393;28;20434;-92
2021/09/20 04:34:56;;;;;;;25.10;23.30;;;;;;;;;;5056275;28;20455;-91
2021/09/20 04:37:24;;;;;;;25.13;23.20;;;;;;;;;;5056108;28;20491;-91
2021/09/20 04:39:51;;;;;;;25.37;23.50;;;;;;;;;;5055975;28;20822;-91
2021/09/20 04:42:19;;;;;;;24.63;23.03;;;;;;;;;;5056267;28;20418;-92
2021/09/20 04:44:46;;;;;;;25.13;23.33;;;;;;;;;;5039203;28;20445;-92
2021/09/20 04:47:13;;;;;;;24.80;23.10;;;;;;;;;;5038984;28;20439;-92
2021/09/20 04:49:41;;;;;;;23.40;21.90;;;;;;;;;;5056101;28;20808;-91
2021/09/20 04:52:10;;;;;;;25.47;23.57;;;;;;;;;;5056237;28;20480;-91
2021/09/20 04:54:37;;;;;;;25.17;23.03;;;;;;;;;;5055935;28;20420;-90
2021/09/20 04:57:05;;;;;;;25.33;23.73;;;;;;;;;;5055426;28;20981;-92
2021/09/20 04:59:32;;;;;;;25.77;23.90;;;;;;;;;;5056147;28;20432;-91
2021/09/20 05:02:00;;;;;;;25.47;23.77;;;;;;;;;;5055577;28;20417;-92
2021/09/20 05:04:27;;;;;;;24.97;23.27;;;;;;;;;;5055565;28;20420;-91
2021/09/20 05:06:55;;;;;;;24.00;22.20;;;;;;;;;;5055517;28;20549;-91
2021/09/20 05:09:23;;;;;;;25.77;23.87;;;;;;;;;;5038147;28;20414;-92
2021/09/20 05:11:51;;;;;;;24.40;22.67;;;;;;;;;;5055562;28;20454;-91
2021/09/20 05:14:18;;;;;;;25.33;23.60;;;;;;;;;;5055417;28;20441;-91
2021/09/20 05:16:46;;;;;;;23.80;22.10;;;;;;;;;;5038394;28;20490;-91
2021/09/20 05:19:13;;;;;;;24.50;22.90;;;;;;;;;;5055624;28;20408;-92
2021/09/20 05:21:40;;;;;;;25.00;23.13;;;;;;;;;;5056169;28;20432;-91
2021/09/20 05:24:08;;;;;;;24.20;22.60;;;;;;;;;;5055995;28;20413;-92
2021/09/20 05:26:37;;;;;;;25.07;23.30;;;;;;;;;;5055387;28;20409;-91
2021/09/20 05:29:04;;;;;;;25.67;23.77;;;;;;;;;;5037654;28;20425;-92
2021/09/20 05:31:31;;;;;;;23.90;22.30;;;;;;;;;;5055620;28;20410;-92
2021/09/20 05:33:59;;;;;;;25.20;23.33;;;;;;;;;;5055469;28;20423;-92
2021/09/20 05:36:26;;;;;;;25.60;23.60;;;;;;;;;;5055169;28;21016;-92
2021/09/20 05:38:54;;;;;;;24.20;22.50;;;;;;;;;;5055349;28;20425;-91
2021/09/20 05:41:21;;;;;;;24.70;22.40;;;;;;;;;;5054934;28;20425;-91
2021/09/20 05:43:50;;;;;;;25.07;23.27;;;;;;;;;;5054869;28;20428;-88
2021/09/20 05:46:17;;;;;;;25.63;23.47;;;;;;;;;;5054735;28;20406;-86
2021/09/20 05:48:44;;;;;;;24.90;22.90;;;;;;;;;;5054675;28;20435;-92
2021/09/20 05:51:12;;;;;;;24.03;22.43;;;;;;;;;;5054641;28;20425;-92
2021/09/20 05:53:40;;;;;;;24.80;22.90;;;;;;;;;;5054885;28;20429;-92
2021/09/20 05:56:07;;;;;;;24.63;22.87;;;;;;;;;;5037129;28;20495;-87
2021/09/20 05:58:35;;;;;;;24.30;22.70;;;;;;;;;;5054693;28;20980;-87
2021/09/20 06:01:04;;;;;;;24.37;22.73;;;;;;;;;;5054782;28;20417;-88
2021/09/20 06:03:31;;;;;;;25.10;23.30;;;;;;;;;;5054496;28;20417;-91
2021/09/20 06:05:58;;;;;;;24.67;22.90;;;;;;;;;;5054540;28;20455;-92
2021/09/20 06:08:26;;;;;;;24.60;22.90;;;;;;;;;;5054416;28;20959;-87
2021/09/20 06:10:53;;;;;;;24.20;22.57;;;;;;;;;;5054444;28;20408;-87
2021/09/20 06:13:21;;;;;;;24.20;22.60;;;;;;;;;;5054283;28;20927;-88
2021/09/20 06:15:50;;;;;;;23.87;22.00;;;;;;;;;;5053701;28;20494;-88
2021/09/20 06:18:18;;;;;;;24.13;22.53;;;;;;;;;;5054564;28;20439;-87
2021/09/20 06:20:46;;;;;;;22.30;20.80;;;;;;;;;;5054388;28;20933;-87
2021/09/20 06:23:13;;;;;;;21.60;20.23;;;;;;;;;;5054659;28;20414;-87
2021/09/20 06:25:42;;;;;;;23.27;21.70;;;;;;;;;;5036376;28;20429;-87
2021/09/20 06:28:09;;;;;;;24.03;22.07;;;;;;;;;;5054120;28;20948;-88
2021/09/20 06:30:37;;;;;;;24.30;22.80;;;;;;;;;;5054326;28;20446;-87
2021/09/20 06:33:05;;;;;;;25.13;23.50;;;;;;;;;;5054064;28;20442;-87
2021/09/20 06:35:34;;;;;;;23.53;22.03;;;;;;;;;;5054611;28;20446;-88
2021/09/20 06:38:01;;;;;;;23.07;21.67;;;;;;;;;;5054234;28;20421;-87
2021/09/20 06:40:30;;;;;;;23.67;21.57;;;;;;;;;;5054274;28;20769;-87
2021/09/20 06:42:57;;;;;;;23.10;21.60;;;;;;;;;;5054367;28;20814;-88
2021/09/20 06:45:25;;;;;;;23.60;22.10;;;;;;;;;;5053934;28;20410;-87
2021/09/20 06:47:52;;;;;;;23.00;21.60;;;;;;;;;;5053888;28;20465;-88
2021/09/20 06:50:20;;;;;;;24.10;22.60;;;;;;;;;;5054282;28;20416;-88
2021/09/20 06:52:49;;;;;;;24.23;22.63;;;;;;;;;;5054287;28;20413;-88
2021/09/20 06:55:16;;;;;;;23.17;21.63;;;;;;;;;;5053823;28;20486;-87
2021/09/20 06:57:43;;;;;;;23.47;21.87;;;;;;;;;;5053648;28;20560;-88
2021/09/20 07:00:12;;;;;;;23.57;21.80;;;;;;;;;;5053854;28;20454;-87
2021/09/20 07:02:39;;;;;;;24.53;22.93;;;;;;;;;;5053889;28;20441;-88
2021/09/20 07:05:07;;;;;;;24.17;22.57;;;;;;;;;;5054115;28;20417;-88
2021/09/20 07:07:35;;;;;;;24.23;22.60;;;;;;;;;;5053862;28;20409;-88
2021/09/20 07:10:04;;;;;;;23.53;22.03;;;;;;;;;;5054092;28;20468;-88
2021/09/20 07:12:31;;;;;;;24.10;22.10;;;;;;;;;;5053868;28;20409;-89
2021/09/20 07:14:59;;;;;;;24.50;22.70;;;;;;;;;;5036437;28;20518;-87
2021/09/20 07:17:26;;;;;;;22.00;20.60;;;;;;;;;;5054090;28;20457;-90
2021/09/20 07:19:54;;;;;;;22.90;21.40;;;;;;;;;;5054611;28;20429;-88
2021/09/20 07:22:21;;;;;;;23.00;21.60;;;;;;;;;;5037079;28;20414;-88
2021/09/20 07:24:48;;;;;;;21.97;20.63;;;;;;;;;;5053939;28;20421;-87
2021/09/20 07:27:17;;;;;;;22.60;21.20;;;;;;;;;;5037242;28;20433;-87
2021/09/20 07:29:44;;;;;;;22.37;20.93;;;;;;;;;;5058158;28;20441;-87
2021/09/20 07:32:12;;;;;;;22.60;21.20;;;;;;;;;;5057295;28;20489;-87
2021/09/20 07:34:39;;;;;;;22.03;20.70;;;;;;;;;;5057419;28;20907;-88
2021/09/20 07:37:07;;;;;;;22.73;21.33;;;;;;;;;;5057429;28;20464;-88
2021/09/20 07:39:34;;;;;;;22.60;21.20;;;;;;;;;;5057493;28;20797;-88
2021/09/20 07:42:02;;;;;;;22.60;21.10;;;;;;;;;;5057359;28;20401;-88
2021/09/20 07:44:31;;;;;;;23.00;21.10;;;;;;;;;;5040069;28;20435;-89
2021/09/20 07:46:58;;;;;;;22.17;20.77;;;;;;;;;;5057157;28;20452;-87
2021/09/20 07:49:26;;;;;;;22.50;21.10;;;;;;;;;;5057289;28;20784;-87
2021/09/20 07:51:53;;;;;;;22.27;20.67;;;;;;;;;;5057174;28;20442;-92
2021/09/20 07:54:20;;;;;;;22.33;21.00;;;;;;;;;;5056963;28;20430;-87
2021/09/20 07:56:48;;;;;;;22.70;21.30;;;;;;;;;;5056612;28;20458;-96
2021/09/20 07:59:15;;;;;;;21.90;20.50;;;;;;;;;;5059226;28;20425;-93
2021/09/20 08:01:45;;;;;;;22.50;20.93;;;;;;;;;;5058174;28;20461;-95
2021/09/20 08:04:12;;;;;;;21.60;20.20;;;;;;;;;;5039253;28;20903;-95
2021/09/20 08:06:40;;;;;;;22.50;21.07;;;;;;;;;;5039333;28;20429;-94
2021/09/20 08:09:07;;;;;;;23.40;21.30;;;;;;;;;;5056709;28;20457;-94
2021/09/20 08:11:35;;;;;;;21.70;20.50;;;;;;;;;;5039664;28;20432;-88
2021/09/20 08:14:02;;;;;;;21.20;19.90;;;;;;;;;;5057225;28;20449;-87
2021/09/20 08:16:29;;;;;;;22.50;21.10;;;;;;;;;;5056952;28;20445;-87
2021/09/20 08:18:58;;;;;;;21.27;20.07;;;;;;;;;;5057622;28;20429;-88
2021/09/20 08:21:26;;;;;;;21.73;20.43;;;;;;;;;;5057924;28;20414;-86
2021/09/20 08:23:53;;;;;;;21.80;20.40;;;;;;;;;;5058676;28;20900;-87
2021/09/20 08:26:20;;;;;;;21.47;20.27;;;;;;;;;;5057498;28;20438;-86
2021/09/20 08:28:48;;;;;;;20.63;19.33;;;;;;;;;;5056572;28;20435;-86
2021/09/20 08:31:15;;;;;;;21.70;20.30;;;;;;;;;;5056386;28;20447;-86
2021/09/20 08:33:42;;;;;;;21.40;20.20;;;;;;;;;;5056072;28;20919;-85
2021/09/20 08:36:12;;;;;;;21.50;20.00;;;;;;;;;;5056253;28;20791;-85
2021/09/20 08:38:39;;;;;;;21.60;20.20;;;;;;;;;;5055236;28;20477;-85
2021/09/20 08:41:07;;;;;;;22.10;20.70;;;;;;;;;;5056099;28;20429;-87
2021/09/20 08:43:34;;;;;;;21.87;20.63;;;;;;;;;;5038560;28;20431;-87
2021/09/20 08:46:03;;;;;;;21.77;20.47;;;;;;;;;;5056347;28;20410;-87
2021/09/20 08:48:32;;;;;;;24.10;22.47;;;;;;;;;;5038716;28;20837;-87
2021/09/20 08:51:00;;;;;;;20.97;19.50;;;;;;;;;;5056377;28;20438;-88
2021/09/20 08:53:28;;;;;;;19.97;18.60;;;;;;;;;;5056403;28;20435;-90
2021/09/20 08:55:56;;;;;;;20.70;19.33;;;;;;;;;;5038784;28;20455;-90
2021/09/20 08:58:23;;;;;;;21.83;20.53;;;;;;;;;;5055618;28;20497;-88
2021/09/20 09:00:51;;;;;;;21.10;19.90;;;;;;;;;;5055603;28;20439;-88
2021/09/20 09:03:20;;;;;;;20.57;19.37;;;;;;;;;;5056593;28;20501;-90
2021/09/20 09:05:49;;;;;;;20.90;19.70;;;;;;;;;;5056539;28;20427;-88
2021/09/20 09:08:18;;;;;;;21.43;20.20;;;;;;;;;;5056451;28;20421;-89
2021/09/20 09:10:48;;;;;;;20.93;19.63;;;;;;;;;;5038601;28;20454;-88
2021/09/20 09:13:15;;;;;;;21.07;19.77;;;;;;;;;;5055248;28;20811;-88
2021/09/20 09:15:48;;;;;;;20.90;19.50;;;;;;;;;;5055607;28;20425;-87
2021/09/20 09:18:15;;;;;;;21.50;19.80;;;;;;;;;;5054935;28;20492;-88
2021/09/20 09:20:43;;;;;;;21.40;20.00;;;;;;;;;;5055285;28;20434;-89
2021/09/20 09:23:12;;;;;;;20.57;19.40;;;;;;;;;;5055455;28;20419;-89
2021/09/20 09:25:40;;;;;;;21.10;19.70;;;;;;;;;;5055546;28;20411;-89
2021/09/20 09:28:14;;;;;;;21.10;19.90;;;;;;;;;;5055266;28;20917;-88
2021/09/20 09:30:43;;;;;;;21.90;20.60;;;;;;;;;;5055207;28;20451;-90
2021/09/20 09:33:11;;;;;;;21.20;19.90;;;;;;;;;;5055229;28;20413;-91
2021/09/20 09:35:39;;;;;;;21.37;20.07;;;;;;;;;;5054916;28;20418;-87
2021/09/20 09:38:07;;;;;;;21.77;20.43;;;;;;;;;;5055163;28;20491;-86
2021/09/20 09:40:46;;;;;;;21.27;20.03;;;;;;;;;;5056425;28;20418;-85
2021/09/20 09:43:22;;;;;;;21.63;20.33;;;;;;;;;;5038248;28;20446;-85
2021/09/20 09:45:49;;;;;;;21.63;20.33;;;;;;;;;;5054729;28;20802;-85
2021/09/20 09:48:18;;;;;;;22.10;20.90;;;;;;;;;;5036976;28;20497;-86
2021/09/20 09:50:47;;;;;;;22.27;21.03;;;;;;;;;;5053327;28;20880;-85
2021/09/20 09:53:25;;;;;;;22.20;20.90;;;;;;;;;;5054900;28;20422;-88
2021/09/20 09:55:53;;;;;;;21.93;20.73;;;;;;;;;;5054888;28;20471;-86
2021/09/20 09:58:22;;;;;;;21.80;20.53;;;;;;;;;;5048256;28;20508;-86
2021/09/20 10:00:49;;;;;;;21.80;20.23;;;;;;;;;;5055093;28;20981;-87
2021/09/20 10:03:17;;;;;;;21.17;20.07;;;;;;;;;;5055398;28;20428;-86
2021/09/20 10:05:57;;;;;;;21.57;20.17;;;;;;;;;;5055631;28;20403;-89
2021/09/20 10:08:26;;;;;;;20.87;19.57;;;;;;;;;;5055220;28;20493;-89
2021/09/20 10:10:59;;;;;;;21.60;19.90;;;;;;;;;;5055353;28;20760;-88
2021/09/20 10:13:30;;;;;;;22.10;20.50;;;;;;;;;;5054687;28;20491;-87
2021/09/20 10:15:57;;;;;;;21.50;20.20;;;;;;;;;;5055224;28;20439;-88
2021/09/20 10:18:26;;;;;;;22.00;20.80;;;;;;;;;;5056224;28;20512;-88
2021/09/20 10:20:53;;;;;;;21.43;20.23;;;;;;;;;;5055804;28;20451;-88
2021/09/20 10:23:20;;;;;;;21.40;19.90;;;;;;;;;;5054830;28;20466;-90
2021/09/20 10:25:53;;;;;;;21.70;20.40;;;;;;;;;;5055352;28;20467;-90
2021/09/20 10:28:21;;;;;;;22.87;21.57;;;;;;;;;;5054305;28;20446;-90
2021/09/20 10:30:53;;;;;;;22.93;21.63;;;;;;;;;;5053276;28;20457;-91
2021/09/20 10:33:27;;;;;;;22.73;21.37;;;;;;;;;;5055158;28;20456;-91
2021/09/20 10:35:56;;;;;;;22.87;21.47;;;;;;;;;;5054337;28;20468;-91
2021/09/20 10:38:29;;;;;;;22.63;21.10;;;;;;;;;;5054405;28;20482;-92
2021/09/20 10:41:10;;;;;;;22.50;21.20;;;;;;;;;;5054870;28;20441;-91
2021/09/20 10:43:38;;;;;;;22.63;21.00;;;;;;;;;;5053783;28;20883;-91
2021/09/20 10:46:19;;;;;;;21.97;20.57;;;;;;;;;;5054340;28;20456;-91
2021/09/20 10:48:48;;;;;;;21.77;20.47;;;;;;;;;;5054301;28;20447;-92
2021/09/20 10:51:16;;;;;;;21.77;20.47;;;;;;;;;;5054362;28;20445;-93
2021/09/20 10:53:44;;;;;;;21.77;20.27;;;;;;;;;;5054661;28;20437;-94
2021/09/20 10:56:16;;;;;;;21.57;20.37;;;;;;;;;;5054453;28;20921;-87
2021/09/20 10:58:45;;;;;;;22.47;21.17;;;;;;;;;;5053581;28;20506;-88
2021/09/20 11:01:29;;;;;;;22.27;20.97;;;;;;;;;;5054264;28;20433;-87
2021/09/20 11:03:59;;;;;;;21.20;20.00;;;;;;;;;;5058355;28;20421;-87
2021/09/20 11:06:27;;;;;;;21.80;20.50;;;;;;;;;;5058013;28;20916;-85
2021/09/20 11:09:09;;;;;;;21.73;20.40;;;;;;;;;;5057696;28;20419;-86
2021/09/20 11:11:43;;;;;;;21.90;20.70;;;;;;;;;;5020739;28;20530;-87
2021/09/20 11:14:12;;;;;;;21.93;20.63;;;;;;;;;;5057575;28;21052;-89
2021/09/20 11:16:50;;;;;;;21.20;19.90;;;;;;;;;;5057894;28;20443;-87
2021/09/20 11:19:36;;;;;;;21.10;19.90;;;;;;;;;;5058234;28;20799;-95
2021/09/20 11:22:23;;;;;;;21.73;20.50;;;;;;;;;;5058657;28;20834;-93
2021/09/20 11:24:52;;;;;;;21.37;19.97;;;;;;;;;;5058059;28;20430;-91
2021/09/20 11:27:25;;;;;;;21.60;20.40;;;;;;;;;;5058041;28;20407;-95
2021/09/20 11:29:52;;;;;;;22.00;20.70;;;;;;;;;;5040486;28;20468;-95
2021/09/20 11:32:21;;;;;;;22.00;20.70;;;;;;;;;;5057461;28;20423;-95
2021/09/20 11:34:52;;;;;;;21.60;20.30;;;;;;;;;;5057346;28;20438;-95
2021/09/20 11:37:22;;;;;;;21.67;20.47;;;;;;;;;;5057415;28;20564;-95
2021/09/20 11:39:50;;;;;;;21.63;20.43;;;;;;;;;;5057270;28;20465;-94
2021/09/20 11:42:19;;;;;;;21.83;20.53;;;;;;;;;;5057104;28;20443;-95
2021/09/20 11:44:50;;;;;;;21.87;20.57;;;;;;;;;;5057973;28;20449;-94
2021/09/20 11:47:18;;;;;;;22.00;20.70;;;;;;;;;;5057156;28;20443;-95
2021/09/20 11:49:48;;;;;;;22.53;20.97;;;;;;;;;;5057243;28;20462;-95
2021/09/20 11:52:16;;;;;;;21.80;20.60;;;;;;;;;;5057637;28;20423;-94
2021/09/20 11:54:57;;;;;;;23.43;22.00;;;;;;;;;;5057551;28;20454;-96
2021/09/20 11:57:25;;;;;;;22.23;20.93;;;;;;;;;;5056394;28;20491;-95
2021/09/20 11:59:57;;;;;;;21.23;20.10;;;;;;;;;;5057008;28;20418;-94
2021/09/20 12:02:28;;;;;;;22.47;21.17;;;;;;;;;;5057168;28;20420;-95
2021/09/20 12:04:57;;;;;;;22.20;20.80;;;;;;;;;;5057066;28;20432;-94
2021/09/20 12:07:28;;;;;;;21.80;20.60;;;;;;;;;;5057009;28;20436;-93
2021/09/20 12:09:56;;;;;;;22.13;20.93;;;;;;;;;;5057631;28;20913;-94
2021/09/20 12:12:27;;;;;;;22.20;21.00;;;;;;;;;;5056619;28;20427;-95
2021/09/20 12:14:58;;;;;;;24.10;22.60;;;;;;;;;;5055482;28;20449;-94
2021/09/20 12:17:26;;;;;;;22.27;20.97;;;;;;;;;;5056745;28;20443;-92
2021/09/20 12:19:54;;;;;;;22.97;21.67;;;;;;;;;;5056654;28;20465;-91
2021/09/20 12:22:38;;;;;;;22.80;21.50;;;;;;;;;;5056816;28;20436;-91
2021/09/20 12:25:21;;;;;;;23.50;21.90;;;;;;;;;;5056848;28;20475;-92
2021/09/20 12:27:48;;;;;;;23.53;22.10;;;;;;;;;;5040968;28;20521;-91
2021/09/20 12:30:16;;;;;;;22.63;21.33;;;;;;;;;;5057199;28;20885;-92
2021/09/20 12:32:44;;;;;;;21.67;20.33;;;;;;;;;;5056413;28;20878;-92
2021/09/20 12:35:11;;;;;;;23.00;21.70;;;;;;;;;;5056555;28;20427;-92
2021/09/20 12:37:40;;;;;;;22.93;21.63;;;;;;;;;;5057398;28;20472;-95
2021/09/20 12:40:18;;;;;;;21.70;20.40;;;;;;;;;;5038842;28;20928;-95
2021/09/20 12:42:45;;;;;;;25.87;23.10;;;;;;;;;;5056332;28;20438;-96
2021/09/20 12:45:18;;;;;;;22.30;21.00;;;;;;;;;;5056885;28;20429;-96
2021/09/20 12:47:56;;;;;;;22.07;20.77;;;;;;;;;;5038840;28;20954;-96
2021/09/20 12:50:23;;;;;;;21.60;20.30;;;;;;;;;;5056237;28;20429;-96
2021/09/20 12:52:55;;;;;;;22.40;21.10;;;;;;;;;;5056568;28;20471;-96
2021/09/20 12:55:32;;;;;;;22.33;21.03;;;;;;;;;;5055640;28;20470;-95
2021/09/20 12:58:00;;;;;;;22.43;21.07;;;;;;;;;;5046893;28;20452;-96
2021/09/20 13:00:31;;;;;;;22.40;21.10;;;;;;;;;;5056039;28;20431;-95
2021/09/20 13:03:05;;;;;;;22.70;21.40;;;;;;;;;;5055368;28;20963;-96
2021/09/20 13:05:33;;;;;;;21.13;19.83;;;;;;;;;;5056390;28;20479;-96
2021/09/20 13:08:06;;;;;;;23.07;21.40;;;;;;;;;;5057068;28;20420;-96
2021/09/20 13:10:34;;;;;;;22.50;21.10;;;;;;;;;;5056820;28;20454;-96
2021/09/20 13:13:02;;;;;;;21.90;20.60;;;;;;;;;;5054845;28;20476;-95
2021/09/20 13:15:31;;;;;;;22.67;21.23;;;;;;;;;;5056097;28;20416;-96
2021/09/20 13:17:59;;;;;;;22.63;21.33;;;;;;;;;;5100488;23;20480;-96
2021/09/20 13:26:30;;;;;;;22.20;20.90;;;;;;;;;;5077141;22;20502;-96
2021/09/20 13:29:00;;;;;;;22.40;21.10;;;;;;;;;;5058495;28;20449;-96
2021/09/20 13:31:30;;;;;;;22.67;21.13;;;;;;;;;;5055730;28;20845;-96
2021/09/20 13:33:57;;;;;;;22.20;20.90;;;;;;;;;;5056425;28;20748;-96
2021/09/20 13:36:25;;;;;;;21.40;20.20;;;;;;;;;;5040846;28;20710;-96
2021/09/20 13:38:56;;;;;;;22.10;20.50;;;;;;;;;;5070146;28;20451;-96
2021/09/20 13:41:29;;;;;;;21.67;20.27;;;;;;;;;;5066975;28;20458;-96
2021/09/20 13:43:57;;;;;;;22.97;21.77;;;;;;;;;;5070492;28;20514;-95
2021/09/20 13:46:26;;;;;;;22.57;21.37;;;;;;;;;;5065817;28;20477;-95
2021/09/20 13:48:54;;;;;;;23.00;21.70;;;;;;;;;;5065650;28;20410;-96
2021/09/20 13:51:22;;;;;;;23.10;21.80;;;;;;;;;;5058168;28;20478;-95
2021/09/20 13:54:05;;;;;;;23.43;21.77;;;;;;;;;;5064487;28;20396;-96
2021/09/20 13:56:36;;;;;;;22.90;21.30;;;;;;;;;;5057012;28;20501;-96
2021/09/20 13:59:06;;;;;;;23.63;22.10;;;;;;;;;;5065179;28;20497;-96
2021/09/20 14:01:34;;;;;;;24.70;22.63;;;;;;;;;;5063645;28;20454;-96
2021/09/20 14:04:03;;;;;;;24.37;22.87;;;;;;;;;;5066811;28;20434;-96
2021/09/20 14:06:40;;;;;;;24.07;22.77;;;;;;;;;;5062995;28;20448;-96
2021/09/20 14:09:09;;;;;;;23.10;21.53;;;;;;;;;;5049168;28;20948;-96
2021/09/20 14:38:06;;;;;;;23.03;21.63;;;;;;;;;;6131805;22;20423;-95
2021/09/20 14:54:42;;;;;;;22.90;21.60;;;;;;;;;;5652325;22;20460;31
2021/09/20 14:57:20;;;;;;;22.80;21.50;;;;;;;;;;5009301;28;20498;-96
2021/09/20 15:02:16;;;;;;;23.30;21.80;;;;;;;;;;5091847;22;20482;-93
2021/09/20 15:17:53;;;;;;;22.43;21.13;;;;;;;;;;5531976;22;20469;-96
2021/09/20 15:20:21;;;;;;;22.83;21.43;;;;;;;;;;5053749;28;20777;-96
2021/09/20 15:22:49;;;;;;;22.50;21.20;;;;;;;;;;5053782;28;20951;-95
2021/09/20 15:25:19;;;;;;;22.33;21.13;;;;;;;;;;5035922;28;20482;-96
2021/09/20 15:27:47;;;;;;;23.50;21.60;;;;;;;;;;5053875;28;20431;-95